createdAt,value
2018-12-21T00:00:19.835Z,24.57
2018-12-21T00:02:48.264Z,17.63
2018-12-21T00:05:16.684Z,17.03
2018-12-21T00:07:45.072Z,20.20
2018-12-21T00:10:13.687Z,22.83
2018-12-21T00:12:42.101Z,15.77
2018-12-21T00:15:10.514Z,14.87
2018-12-21T00:17:39.040Z,16.37
2018-12-21T00:20:09.571Z,20.37
2018-12-21T00:22:38.227Z,14.20
2018-12-21T00:25:06.885Z,16.40
2018-12-21T00:27:35.292Z,20.10
2018-12-21T00:30:04.011Z,21.80
2018-12-21T00:32:37.702Z,18.87
2018-12-21T00:35:11.570Z,17.13
2018-12-21T00:37:45.354Z,13.90
2018-12-21T00:40:19.146Z,11.47
2018-12-21T00:42:52.853Z,11.87
2018-12-21T00:45:26.503Z,12.80
2018-12-21T00:47:55.012Z,16.13
2018-12-21T00:50:23.450Z,18.00
2018-12-21T00:52:51.994Z,17.10
2018-12-21T00:55:20.382Z,12.37
2018-12-21T00:57:48.774Z,13.00
2018-12-21T01:00:20.763Z,15.57
2018-12-21T01:02:49.281Z,13.13
2018-12-21T01:05:17.696Z,11.40
2018-12-21T01:07:46.231Z,14.10
2018-12-21T01:10:14.982Z,13.67
2018-12-21T01:12:43.603Z,19.40
2018-12-21T01:15:12.127Z,14.03
2018-12-21T01:17:40.561Z,15.07
2018-12-21T01:20:09.453Z,16.90
2018-12-21T01:22:37.987Z,17.70
2018-12-21T01:25:06.508Z,18.97
2018-12-21T01:27:34.936Z,18.20
2018-12-21T01:30:04.035Z,17.33
2018-12-21T01:32:32.419Z,11.83
2018-12-21T01:35:00.882Z,16.67
2018-12-21T01:37:29.316Z,12.57
2018-12-21T01:39:57.802Z,15.93
2018-12-21T01:42:26.204Z,14.63
2018-12-21T01:44:54.699Z,12.43
2018-12-21T01:47:23.079Z,9.17
2018-12-21T01:49:51.495Z,14.93
2018-12-21T01:52:19.888Z,19.30
2018-12-21T01:54:48.295Z,14.93
2018-12-21T01:57:16.701Z,15.80
2018-12-21T01:59:45.085Z,15.87
2018-12-21T02:02:13.568Z,9.00
2018-12-21T02:04:41.982Z,14.03
2018-12-21T02:07:10.381Z,11.63
2018-12-21T02:09:38.789Z,12.13
2018-12-21T02:12:07.180Z,14.23
2018-12-21T02:14:35.565Z,10.63
2018-12-21T02:17:04.139Z,10.70
2018-12-21T02:19:32.531Z,7.60
2018-12-21T02:22:00.937Z,8.33
2018-12-21T02:24:29.364Z,9.00
2018-12-21T02:26:57.781Z,8.90
2018-12-21T02:29:26.209Z,7.83
2018-12-21T02:32:01.028Z,7.33
2018-12-21T02:34:29.439Z,8.83
2018-12-21T02:36:57.852Z,4.23
2018-12-21T02:39:26.257Z,6.90
2018-12-21T02:41:54.679Z,5.87
2018-12-21T02:44:23.091Z,8.93
2018-12-21T02:46:51.526Z,8.23
2018-12-21T02:49:19.907Z,5.43
2018-12-21T02:51:48.317Z,10.27
2018-12-21T02:54:16.749Z,7.37
2018-12-21T02:56:45.152Z,6.40
2018-12-21T02:59:13.622Z,7.03
2018-12-21T03:01:42.115Z,7.93
2018-12-21T03:04:10.639Z,9.03
2018-12-21T03:06:39.179Z,10.87
2018-12-21T03:09:10.119Z,7.90
2018-12-21T03:11:38.635Z,12.00
2018-12-21T03:14:07.041Z,10.40
2018-12-21T03:16:35.431Z,11.27
2018-12-21T03:19:04.009Z,13.13
2018-12-21T03:21:32.419Z,9.90
2018-12-21T03:24:00.812Z,12.63
2018-12-21T03:26:29.376Z,13.20
2018-12-21T03:28:57.860Z,15.10
2018-12-21T03:31:26.389Z,12.90
2018-12-21T03:33:54.803Z,13.40
2018-12-21T03:36:23.300Z,12.27
2018-12-21T03:38:51.706Z,14.37
2018-12-21T03:41:20.167Z,12.00
2018-12-21T03:43:48.637Z,14.83
2018-12-21T03:46:17.138Z,15.43
2018-12-21T03:48:45.641Z,13.23
2018-12-21T03:51:14.020Z,12.47
2018-12-21T03:53:42.418Z,8.90
2018-12-21T03:56:10.807Z,9.00
2018-12-21T03:58:39.383Z,10.70
2018-12-21T04:01:07.967Z,9.00
2018-12-21T04:03:36.653Z,6.67
2018-12-21T04:06:05.200Z,7.43
2018-12-21T04:08:33.648Z,5.87
2018-12-21T04:11:02.442Z,7.77
2018-12-21T04:13:31.080Z,7.77
2018-12-21T04:15:59.737Z,7.17
2018-12-21T04:18:28.402Z,6.30
2018-12-21T04:20:57.077Z,6.77
2018-12-21T04:23:25.531Z,6.73
2018-12-21T04:25:53.974Z,6.63
2018-12-21T04:28:22.619Z,5.97
2018-12-21T04:30:51.135Z,6.23
2018-12-21T04:33:19.707Z,6.93
2018-12-21T04:35:48.218Z,4.80
2018-12-21T04:38:17.159Z,4.67
2018-12-21T04:40:45.997Z,5.07
2018-12-21T04:43:14.412Z,6.60
2018-12-21T04:45:42.951Z,5.57
2018-12-21T04:48:11.438Z,4.77
2018-12-21T04:50:40.003Z,3.60
2018-12-21T04:53:08.544Z,3.23
2018-12-21T04:55:36.973Z,3.33
2018-12-21T04:58:05.485Z,4.30
2018-12-21T05:00:33.907Z,3.80
2018-12-21T05:03:02.308Z,3.60
2018-12-21T05:05:30.684Z,2.93
2018-12-21T05:07:59.085Z,3.00
2018-12-21T05:10:27.542Z,3.23
2018-12-21T05:12:55.936Z,4.53
2018-12-21T05:15:24.355Z,5.27
2018-12-21T05:17:52.785Z,4.67
2018-12-21T05:20:21.198Z,3.67
2018-12-21T05:22:52.374Z,5.27
2018-12-21T05:25:20.044Z,5.37
2018-12-21T05:27:48.446Z,4.67
2018-12-21T05:30:16.865Z,5.70
2018-12-21T05:32:45.376Z,3.87
2018-12-21T05:35:13.772Z,4.47
2018-12-21T05:37:42.301Z,4.20
2018-12-21T05:40:10.922Z,6.13
2018-12-21T05:42:39.316Z,4.87
2018-12-21T05:45:07.891Z,4.53
2018-12-21T05:47:36.271Z,4.57
2018-12-21T05:50:04.931Z,2.83
2018-12-21T05:52:33.361Z,3.03
2018-12-21T05:55:01.736Z,4.67
2018-12-21T05:57:30.120Z,2.77
2018-12-21T05:59:58.494Z,4.70
2018-12-21T06:02:27.024Z,1.93
2018-12-21T06:04:55.435Z,2.43
2018-12-21T06:07:23.855Z,1.83
2018-12-21T06:09:52.246Z,2.50
2018-12-21T06:12:20.621Z,2.33
2018-12-21T06:14:49.032Z,1.77
2018-12-21T06:17:17.444Z,1.50
2018-12-21T06:19:45.829Z,1.67
2018-12-21T06:22:14.236Z,1.93
2018-12-21T06:24:42.643Z,3.40
2018-12-21T06:27:11.263Z,2.63
2018-12-21T06:29:39.730Z,2.87
2018-12-21T06:32:08.134Z,2.70
2018-12-21T06:34:36.579Z,2.03
2018-12-21T06:37:04.978Z,2.87
2018-12-21T06:39:33.404Z,2.80
2018-12-21T06:42:01.848Z,2.77
2018-12-21T06:44:30.232Z,3.00
2018-12-21T06:46:58.639Z,3.67
2018-12-21T06:49:27.067Z,6.80
2018-12-21T06:51:55.585Z,5.83
2018-12-21T06:54:24.120Z,3.07
2018-12-21T06:56:52.571Z,4.10
2018-12-21T06:59:20.955Z,3.33
2018-12-21T07:01:49.381Z,4.47
2018-12-21T07:04:17.783Z,2.90
2018-12-21T07:06:46.295Z,3.30
2018-12-21T07:09:14.771Z,2.20
2018-12-21T07:11:43.181Z,3.43
2018-12-21T07:14:11.577Z,2.40
2018-12-21T07:16:40.012Z,4.77
2018-12-21T07:19:08.423Z,5.27
2018-12-21T07:21:36.817Z,2.50
2018-12-21T07:24:05.247Z,3.70
2018-12-21T07:26:33.663Z,3.47
2018-12-21T07:29:02.103Z,3.10
2018-12-21T07:31:30.583Z,3.07
2018-12-21T07:33:59.110Z,3.50
2018-12-21T07:36:27.532Z,2.97
2018-12-21T07:38:55.974Z,3.93
2018-12-21T07:41:24.431Z,3.13
2018-12-21T07:43:52.845Z,3.00
2018-12-21T07:46:21.298Z,3.10
2018-12-21T07:48:49.736Z,3.23
2018-12-21T07:51:18.247Z,1.70
2018-12-21T07:53:46.732Z,4.47
2018-12-21T07:56:15.131Z,2.57
2018-12-21T07:58:43.545Z,2.30
2018-12-21T08:01:12.011Z,3.23
2018-12-21T08:03:40.438Z,2.50
2018-12-21T08:06:08.839Z,2.80
2018-12-21T08:08:37.291Z,1.47
2018-12-21T08:11:05.773Z,4.97
2018-12-21T08:13:34.279Z,4.17
2018-12-21T08:16:02.726Z,1.13
2018-12-21T08:18:31.210Z,2.00
2018-12-21T08:20:59.719Z,1.60
2018-12-21T08:23:28.118Z,6.60
2018-12-21T08:25:56.555Z,2.67
2018-12-21T08:28:24.989Z,4.53
2018-12-21T08:30:53.431Z,1.70
2018-12-21T08:33:21.969Z,2.10
2018-12-21T08:35:50.393Z,2.33
2018-12-21T08:38:18.823Z,4.87
2018-12-21T08:40:47.295Z,1.33
2018-12-21T08:43:15.726Z,1.23
2018-12-21T08:45:44.184Z,4.90
2018-12-21T08:48:12.621Z,2.60
2018-12-21T08:50:41.057Z,2.93
2018-12-21T08:53:09.489Z,5.07
2018-12-21T08:55:37.912Z,1.00
2018-12-21T08:58:06.359Z,0.50
2018-12-21T09:00:34.831Z,1.30
2018-12-21T09:03:03.275Z,4.87
2018-12-21T09:05:31.711Z,4.03
2018-12-21T09:08:00.213Z,4.87
2018-12-21T09:10:28.854Z,2.43
2018-12-21T09:12:57.279Z,6.17
2018-12-21T09:15:25.728Z,4.33
2018-12-21T09:17:54.184Z,1.93
2018-12-21T09:20:22.625Z,1.67
2018-12-21T09:22:51.031Z,3.80
2018-12-21T09:25:19.444Z,4.23
2018-12-21T09:27:47.915Z,3.33
2018-12-21T09:30:16.330Z,2.20
2018-12-21T09:32:44.895Z,4.07
2018-12-21T09:35:13.498Z,2.57
2018-12-21T09:37:41.918Z,5.50
2018-12-21T09:40:11.872Z,3.80
2018-12-21T09:42:40.305Z,7.60
2018-12-21T09:45:08.866Z,3.90
2018-12-21T09:47:37.335Z,3.53
2018-12-21T09:50:08.990Z,3.63
2018-12-21T09:52:37.631Z,5.13
2018-12-21T09:55:07.372Z,7.83
2018-12-21T09:57:35.785Z,6.00
2018-12-21T10:00:05.753Z,6.97
2018-12-21T10:02:35.887Z,4.03
2018-12-21T10:05:05.105Z,10.23
2018-12-21T10:07:33.525Z,6.33
2018-12-21T10:10:01.963Z,9.10
2018-12-21T10:12:30.386Z,7.10
2018-12-21T10:14:58.824Z,6.97
2018-12-21T10:17:27.273Z,9.17
2018-12-21T10:19:55.728Z,8.03
2018-12-21T10:22:24.190Z,7.60
2018-12-21T10:24:54.174Z,6.47
2018-12-21T10:27:22.815Z,5.53
2018-12-21T10:29:51.267Z,8.07
2018-12-21T10:32:19.709Z,6.13
2018-12-21T10:34:48.198Z,8.73
2018-12-21T10:37:16.844Z,7.13
2018-12-21T10:39:45.369Z,6.37
2018-12-21T10:42:13.875Z,13.63
2018-12-21T10:44:42.598Z,11.43
2018-12-21T10:47:11.100Z,10.33
2018-12-21T10:49:39.838Z,11.13
2018-12-21T10:52:08.286Z,14.50
2018-12-21T10:54:36.761Z,17.20
2018-12-21T10:57:05.198Z,15.27
2018-12-21T10:59:33.579Z,13.93
2018-12-21T11:02:02.215Z,13.13
2018-12-21T11:04:30.769Z,14.63
2018-12-21T11:06:59.243Z,13.87
2018-12-21T11:09:28.216Z,17.40
2018-12-21T11:11:56.662Z,12.83
2018-12-21T11:14:25.471Z,19.77
2018-12-21T11:16:54.012Z,21.97
2018-12-21T11:19:22.443Z,14.10
2018-12-21T11:21:50.933Z,19.23
2018-12-21T11:24:19.419Z,19.27
2018-12-21T11:26:47.840Z,30.50
2018-12-21T11:29:16.536Z,24.33
2018-12-21T11:31:45.574Z,26.37
2018-12-21T11:34:14.023Z,25.17
2018-12-21T11:36:42.466Z,31.97
2018-12-21T11:39:10.915Z,31.77
2018-12-21T11:41:39.364Z,28.43
2018-12-21T11:44:07.802Z,39.47
2018-12-21T11:46:36.218Z,35.70
2018-12-21T11:49:04.636Z,40.40
2018-12-21T11:51:33.087Z,36.47
2018-12-21T11:54:01.489Z,39.07
2018-12-21T11:56:30.016Z,49.17
2018-12-21T11:58:58.469Z,36.27
2018-12-21T12:01:27.028Z,37.03
2018-12-21T12:03:55.492Z,40.03
2018-12-21T12:06:23.960Z,46.90
2018-12-21T12:08:52.424Z,42.70
2018-12-21T12:11:20.880Z,46.07
2018-12-21T12:13:49.305Z,45.27
2018-12-21T12:16:17.764Z,42.40
2018-12-21T12:18:46.224Z,47.93
2018-12-21T12:21:14.724Z,39.53
2018-12-21T12:23:43.191Z,41.10
2018-12-21T12:26:11.708Z,42.57
2018-12-21T12:28:40.184Z,42.80
2018-12-21T12:31:08.591Z,42.27
2018-12-21T12:33:37.424Z,44.17
2018-12-21T12:36:05.961Z,54.97
2018-12-21T12:38:34.461Z,43.67
2018-12-21T12:41:06.793Z,49.13
2018-12-21T12:43:33.658Z,47.80
2018-12-21T12:46:02.199Z,47.97
2018-12-21T12:48:30.882Z,51.93
2018-12-21T12:50:59.310Z,53.80
2018-12-21T12:53:27.868Z,46.90
2018-12-21T12:55:56.384Z,47.97
2018-12-21T12:58:24.807Z,47.80
2018-12-21T13:15:24.593Z,46.67
2018-12-21T13:17:53.070Z,44.77
2018-12-21T13:20:21.668Z,48.13
2018-12-21T13:22:50.129Z,58.07
2018-12-21T13:25:18.575Z,49.63
2018-12-21T13:27:47.155Z,50.53
2018-12-21T13:30:15.784Z,54.27
2018-12-21T13:32:44.213Z,49.77
2018-12-21T13:35:12.671Z,70.83
2018-12-21T13:37:41.196Z,57.33
2018-12-21T13:40:11.907Z,58.07
2018-12-21T13:42:43.351Z,62.60
2018-12-21T13:45:11.832Z,54.57
2018-12-21T13:47:40.369Z,46.70
2018-12-21T13:50:12.370Z,57.00
2018-12-21T13:52:40.848Z,51.37
2018-12-21T13:55:09.566Z,66.23
2018-12-21T13:57:38.031Z,60.87
2018-12-21T14:00:08.862Z,58.90
2018-12-21T14:02:37.362Z,58.80
2018-12-21T14:05:07.233Z,60.03
2018-12-21T14:07:35.720Z,68.20
2018-12-21T14:10:07.081Z,63.93
2018-12-21T14:12:35.551Z,63.23
2018-12-21T14:15:04.262Z,65.47
2018-12-21T14:17:32.809Z,53.67
2018-12-21T14:20:01.232Z,71.13
2018-12-21T14:22:29.655Z,53.97
2018-12-21T14:24:58.099Z,60.30
2018-12-21T14:27:26.557Z,59.93
2018-12-21T14:29:55.000Z,58.47
2018-12-21T14:32:23.483Z,57.77
2018-12-21T14:34:51.904Z,68.37
2018-12-21T14:37:20.361Z,63.07
2018-12-21T14:39:48.793Z,77.00
2018-12-21T14:42:17.302Z,55.87
2018-12-21T14:44:45.777Z,70.70
2018-12-21T14:47:14.192Z,64.73
2018-12-21T14:49:42.648Z,59.00
2018-12-21T14:52:11.103Z,66.73
2018-12-21T14:54:39.537Z,77.73
2018-12-21T14:57:07.952Z,63.40
2018-12-21T14:59:36.388Z,68.00
2018-12-21T15:02:05.045Z,63.67
2018-12-21T15:04:33.483Z,65.80
2018-12-21T15:07:01.907Z,65.23
2018-12-21T15:09:30.385Z,53.33
2018-12-21T15:11:58.797Z,68.37
2018-12-21T15:14:27.261Z,76.10
2018-12-21T15:16:55.696Z,61.60
2018-12-21T15:19:24.112Z,70.03
2018-12-21T15:21:52.610Z,64.07
2018-12-21T15:24:21.075Z,67.73
2018-12-21T15:26:49.482Z,65.77
2018-12-21T15:29:17.880Z,60.97
2018-12-21T15:34:27.161Z,69.30
2018-12-21T15:36:55.578Z,61.43
2018-12-21T15:39:24.046Z,65.83
2018-12-21T15:41:52.633Z,68.40
2018-12-21T15:44:21.049Z,56.20
2018-12-21T15:46:49.465Z,68.43
2018-12-21T15:49:17.907Z,71.47
2018-12-21T15:51:46.431Z,51.50
2018-12-21T15:54:14.850Z,74.73
2018-12-21T15:56:43.260Z,68.53
2018-12-21T15:59:12.960Z,61.23
2018-12-21T16:01:41.441Z,58.73
2018-12-21T16:04:10.011Z,73.80
2018-12-21T16:06:38.560Z,69.47
2018-12-21T16:09:08.001Z,70.77
2018-12-21T16:11:36.445Z,74.67
2018-12-21T16:14:05.181Z,67.33
2018-12-21T16:16:33.709Z,70.80
2018-12-21T16:19:02.165Z,76.90
2018-12-21T16:21:30.701Z,60.03
2018-12-21T16:24:06.681Z,72.70
2018-12-21T16:26:29.643Z,77.67
2018-12-21T16:28:58.099Z,69.33
2018-12-21T16:31:26.556Z,62.57
2018-12-21T16:33:54.989Z,80.97
2018-12-21T16:36:23.556Z,61.70
2018-12-21T16:38:52.123Z,68.00
2018-12-21T16:41:20.655Z,61.93
2018-12-21T16:43:49.157Z,70.33
2018-12-21T16:46:17.613Z,63.70
2018-12-21T16:48:47.262Z,72.43
2018-12-21T16:51:16.091Z,64.90
2018-12-21T16:53:44.748Z,75.17
2018-12-21T16:56:13.378Z,60.97
2018-12-21T16:58:41.851Z,82.20
2018-12-21T17:01:10.266Z,58.23
2018-12-21T17:03:38.792Z,69.47
2018-12-21T17:06:07.275Z,79.57
2018-12-21T17:08:35.743Z,67.50
2018-12-21T17:11:04.331Z,64.50
2018-12-21T17:13:32.921Z,61.37
2018-12-21T17:16:01.365Z,71.00
2018-12-21T17:18:29.995Z,69.23
2018-12-21T17:20:58.592Z,72.40
2018-12-21T17:23:27.131Z,64.07
2018-12-21T17:25:55.614Z,77.60
2018-12-21T17:28:24.076Z,62.87
2018-12-21T17:30:52.531Z,61.87
2018-12-21T17:33:20.962Z,79.40
2018-12-21T17:35:49.402Z,64.43
2018-12-21T17:38:17.834Z,69.53
2018-12-21T17:40:46.360Z,65.07
2018-12-21T17:43:14.778Z,71.40
2018-12-21T17:45:43.210Z,64.50
2018-12-21T17:48:11.649Z,59.73
2018-12-21T17:50:40.078Z,69.87
2018-12-21T17:53:08.517Z,70.47
2018-12-21T17:55:36.963Z,60.87
2018-12-21T17:58:08.466Z,63.07
2018-12-21T18:00:37.542Z,70.30
2018-12-21T18:03:07.081Z,72.73
2018-12-21T18:05:35.609Z,67.47
2018-12-21T18:08:10.918Z,75.93
2018-12-21T18:10:39.340Z,66.77
2018-12-21T18:13:07.767Z,69.40
2018-12-21T18:15:38.646Z,72.33
2018-12-21T18:18:07.084Z,70.70
2018-12-21T18:20:35.484Z,63.80
2018-12-21T18:23:05.874Z,67.13
2018-12-21T18:25:34.285Z,67.13
2018-12-21T18:28:10.725Z,66.83
2018-12-21T18:30:45.844Z,74.90
2018-12-21T18:33:15.854Z,82.43
2018-12-21T18:35:44.312Z,62.43
2018-12-21T18:38:16.092Z,64.57
2018-12-21T18:40:44.641Z,60.57
2018-12-21T18:43:13.058Z,54.67
2018-12-21T18:45:41.585Z,68.43
2018-12-21T18:48:10.080Z,65.87
2018-12-21T18:50:38.494Z,63.83
2018-12-21T18:53:07.073Z,73.17
2018-12-21T18:55:35.806Z,77.57
2018-12-21T18:58:04.412Z,76.47
2018-12-21T19:00:32.892Z,69.40
2018-12-21T19:03:01.342Z,63.30
2018-12-21T19:05:29.880Z,63.47
2018-12-21T19:07:58.291Z,67.90
2018-12-21T19:10:26.705Z,76.43
2018-12-21T19:12:55.117Z,69.63
2018-12-21T19:15:23.523Z,64.63
2018-12-21T19:17:51.972Z,65.70
2018-12-21T19:20:20.409Z,73.80
2018-12-21T19:22:48.887Z,66.30
2018-12-21T19:25:23.675Z,69.80
2018-12-21T19:27:54.809Z,68.47
2018-12-21T19:30:25.154Z,60.57
2018-12-21T19:32:53.704Z,80.70
2018-12-21T19:35:27.600Z,75.23
2018-12-21T19:37:52.649Z,60.77
2018-12-21T19:40:21.091Z,79.07
2018-12-21T19:42:49.517Z,70.60
2018-12-21T19:45:17.935Z,70.43
2018-12-21T19:47:46.383Z,75.90
2018-12-21T19:50:14.806Z,74.97
2018-12-21T19:52:43.246Z,64.17
2018-12-21T19:55:35.605Z,65.53
2018-12-21T19:58:04.028Z,61.37
2018-12-21T20:00:32.446Z,72.57
2018-12-21T20:03:00.896Z,66.67
2018-12-21T20:05:29.338Z,62.63
2018-12-21T20:07:57.817Z,70.23
2018-12-21T20:10:26.226Z,77.20
2018-12-21T20:12:54.701Z,63.43
2018-12-21T20:15:23.124Z,76.47
2018-12-21T20:17:51.536Z,76.13
2018-12-21T20:20:19.983Z,69.97
2018-12-21T20:22:48.388Z,69.67
2018-12-21T20:25:16.830Z,77.93
2018-12-21T20:27:45.243Z,74.33
2018-12-21T20:30:16.596Z,75.43
2018-12-21T20:32:45.568Z,64.40
2018-12-21T20:35:14.115Z,60.50
2018-12-21T20:37:42.601Z,73.33
2018-12-21T20:40:12.210Z,69.67
2018-12-21T20:42:40.754Z,55.43
2018-12-21T20:45:10.390Z,66.77
2018-12-21T20:47:38.844Z,65.77
2018-12-21T20:50:10.650Z,60.73
2018-12-21T20:52:39.068Z,52.60
2018-12-21T20:55:08.341Z,54.50
2018-12-21T20:57:37.371Z,62.07
2018-12-21T21:00:09.767Z,74.10
2018-12-21T21:02:38.219Z,73.30
2018-12-21T21:05:06.810Z,58.80
2018-12-21T21:07:35.243Z,61.77
2018-12-21T21:10:03.820Z,53.77
2018-12-21T21:12:32.322Z,53.87
2018-12-21T21:15:00.765Z,65.10
2018-12-21T21:17:29.184Z,62.97
2018-12-21T21:19:57.675Z,59.90
2018-12-21T21:22:26.093Z,59.60
2018-12-21T21:24:54.538Z,64.83
2018-12-21T21:27:30.168Z,49.53
2018-12-21T21:29:53.498Z,56.20
2018-12-21T21:32:21.898Z,48.50
2018-12-21T21:34:50.309Z,61.67
2018-12-21T21:37:18.746Z,58.53
2018-12-21T21:39:47.184Z,60.10
2018-12-21T21:42:15.676Z,67.20
2018-12-21T21:44:44.100Z,64.47
2018-12-21T21:47:12.540Z,69.87
2018-12-21T21:49:40.978Z,58.97
2018-12-21T21:52:09.398Z,54.33
2018-12-21T21:54:37.881Z,52.30
2018-12-21T21:57:06.290Z,68.13
2018-12-21T21:59:34.735Z,57.13
2018-12-21T22:02:03.272Z,56.63
2018-12-21T22:04:31.692Z,63.63
2018-12-21T22:07:00.202Z,61.27
2018-12-21T22:09:28.663Z,63.50
2018-12-21T22:11:57.116Z,71.07
2018-12-21T22:14:25.553Z,57.07
2018-12-21T22:16:53.961Z,68.80
2018-12-21T22:19:22.380Z,64.13
2018-12-21T22:21:50.787Z,59.23
2018-12-21T22:24:19.243Z,64.27
2018-12-21T22:26:47.656Z,62.73
2018-12-21T22:29:16.067Z,72.60
2018-12-21T22:31:44.471Z,73.00
2018-12-21T22:34:12.878Z,59.83
2018-12-21T22:36:41.304Z,76.33
2018-12-21T22:39:09.703Z,67.47
2018-12-21T22:41:38.122Z,81.13
2018-12-21T22:44:06.525Z,65.90
2018-12-21T22:46:34.946Z,69.93
2018-12-21T22:49:03.488Z,80.53
2018-12-21T22:51:31.941Z,66.40
2018-12-21T22:54:00.412Z,69.10
2018-12-21T22:56:28.841Z,69.30
2018-12-21T22:58:57.275Z,67.60
2018-12-21T23:01:25.705Z,65.27
2018-12-21T23:03:54.111Z,80.97
2018-12-21T23:06:22.519Z,72.93
2018-12-21T23:08:50.932Z,63.43
2018-12-21T23:11:19.367Z,67.30
2018-12-21T23:13:48.124Z,73.87
2018-12-21T23:16:16.550Z,65.43
2018-12-21T23:18:44.972Z,72.77
2018-12-21T23:21:13.383Z,65.57
2018-12-21T23:23:42.838Z,74.17
2018-12-21T23:26:11.250Z,60.07
2018-12-21T23:28:39.679Z,58.47
2018-12-21T23:31:08.085Z,67.33
2018-12-21T23:33:36.497Z,70.17
2018-12-21T23:36:04.932Z,68.40
2018-12-21T23:38:33.390Z,72.07
2018-12-21T23:41:01.826Z,61.20
2018-12-21T23:43:30.247Z,61.60
2018-12-21T23:45:58.685Z,66.60
2018-12-21T23:48:27.104Z,62.97
2018-12-21T23:50:55.513Z,64.73
2018-12-21T23:53:23.917Z,53.67
2018-12-21T23:55:52.349Z,66.53
2018-12-21T23:58:20.765Z,58.27
